createdAt,value
2023-05-10T00:00:24.165Z,13.66
2023-05-10T00:01:23.970Z,13.66
2023-05-10T00:02:24.342Z,13.64
2023-05-10T00:03:24.007Z,13.64
2023-05-10T00:04:24.227Z,13.62
2023-05-10T00:05:24.089Z,13.60
2023-05-10T00:06:23.913Z,13.60
2023-05-10T00:07:24.089Z,13.59
2023-05-10T00:08:23.917Z,13.59
2023-05-10T00:09:24.006Z,13.54
2023-05-10T00:10:23.860Z,13.52
2023-05-10T00:11:23.938Z,13.54
2023-05-10T00:12:23.870Z,13.51
2023-05-10T00:13:24.145Z,13.52
2023-05-10T00:14:23.806Z,13.49
2023-05-10T00:15:23.944Z,13.46
2023-05-10T00:16:23.782Z,13.44
2023-05-10T00:17:23.911Z,13.44
2023-05-10T00:18:23.762Z,13.41
2023-05-10T00:19:23.933Z,13.44
2023-05-10T00:20:23.753Z,13.41
2023-05-10T00:21:23.900Z,13.41
2023-05-10T00:22:23.717Z,13.39
2023-05-10T00:23:23.831Z,13.38
2023-05-10T00:24:23.698Z,13.36
2023-05-10T00:25:23.864Z,13.36
2023-05-10T00:26:23.672Z,13.36
2023-05-10T00:27:23.862Z,13.36
2023-05-10T00:28:23.632Z,13.38
2023-05-10T00:29:23.745Z,13.38
2023-05-10T00:30:23.641Z,13.36
2023-05-10T00:31:23.793Z,13.38
2023-05-10T00:32:23.653Z,13.32
2023-05-10T00:33:23.775Z,13.32
2023-05-10T00:34:23.600Z,13.30
2023-05-10T00:35:23.702Z,13.32
2023-05-10T00:36:23.754Z,13.33
2023-05-10T00:37:23.541Z,13.38
2023-05-10T00:38:23.733Z,13.38
2023-05-10T00:39:23.491Z,13.38
2023-05-10T00:40:23.793Z,13.36
2023-05-10T00:41:23.746Z,13.39
2023-05-10T00:42:23.488Z,13.39
2023-05-10T00:43:23.540Z,13.39
2023-05-10T00:44:23.429Z,13.36
2023-05-10T00:45:23.569Z,13.32
2023-05-10T00:46:23.481Z,13.33
2023-05-10T00:47:23.607Z,13.33
2023-05-10T00:48:23.388Z,13.26
2023-05-10T00:49:23.470Z,13.23
2023-05-10T00:50:23.362Z,13.25
2023-05-10T00:51:23.541Z,13.23
2023-05-10T00:52:23.354Z,13.28
2023-05-10T00:53:23.409Z,13.30
2023-05-10T00:54:23.310Z,13.32
2023-05-10T00:55:23.419Z,13.36
2023-05-10T00:56:23.277Z,13.33
2023-05-10T00:57:23.489Z,13.36
2023-05-10T00:58:23.387Z,13.36
2023-05-10T00:59:23.445Z,13.38
2023-05-10T01:00:23.261Z,13.38
2023-05-10T01:01:23.526Z,13.41
2023-05-10T01:02:23.500Z,13.33
2023-05-10T01:03:23.228Z,13.30
2023-05-10T01:04:23.394Z,13.26
2023-05-10T01:05:23.244Z,13.26
2023-05-10T01:06:23.424Z,13.25
2023-05-10T01:07:23.300Z,13.25
2023-05-10T01:08:23.203Z,13.23
2023-05-10T01:09:23.293Z,13.22
2023-05-10T01:10:23.118Z,13.20
2023-05-10T01:11:23.223Z,13.20
2023-05-10T01:12:23.376Z,13.19
2023-05-10T01:13:23.162Z,13.12
2023-05-10T01:14:23.261Z,13.14
2023-05-10T01:15:23.037Z,13.11
2023-05-10T01:16:23.087Z,13.11
2023-05-10T01:17:23.029Z,13.12
2023-05-10T01:18:23.286Z,13.14
2023-05-10T01:19:23.007Z,13.14
2023-05-10T01:20:23.165Z,13.14
2023-05-10T01:21:22.932Z,13.15
2023-05-10T01:22:23.111Z,13.11
2023-05-10T01:23:22.940Z,13.10
2023-05-10T01:24:23.123Z,13.08
2023-05-10T01:25:22.909Z,13.08
2023-05-10T01:26:23.108Z,13.07
2023-05-10T01:27:22.948Z,13.05
2023-05-10T01:28:23.148Z,13.07
2023-05-10T01:29:22.857Z,13.07
2023-05-10T01:30:23.014Z,13.04
2023-05-10T01:31:22.883Z,13.04
2023-05-10T01:32:23.065Z,13.00
2023-05-10T01:33:22.801Z,13.03
2023-05-10T01:34:22.987Z,13.03
2023-05-10T01:35:22.777Z,13.01
2023-05-10T01:36:22.843Z,13.03
2023-05-10T01:37:22.735Z,13.03
2023-05-10T01:38:22.918Z,13.04
2023-05-10T01:39:22.718Z,13.04
2023-05-10T01:40:22.828Z,13.05
2023-05-10T01:41:22.710Z,13.07
2023-05-10T01:42:22.738Z,13.11
2023-05-10T01:43:22.747Z,13.12
2023-05-10T01:44:22.680Z,13.11
2023-05-10T01:45:22.736Z,13.11
2023-05-10T01:46:22.717Z,13.10
2023-05-10T01:47:22.706Z,13.12
2023-05-10T01:48:22.681Z,13.14
2023-05-10T01:49:22.595Z,13.15
2023-05-10T01:50:22.808Z,13.12
2023-05-10T01:51:22.567Z,13.14
2023-05-10T01:52:22.664Z,13.11
2023-05-10T01:53:22.594Z,13.12
2023-05-10T01:54:22.554Z,13.10
2023-05-10T01:55:22.615Z,13.08
2023-05-10T01:56:22.513Z,13.07
2023-05-10T01:57:22.848Z,13.04
2023-05-10T01:58:22.526Z,13.00
2023-05-10T01:59:22.539Z,13.01
2023-05-10T02:00:22.483Z,12.97
2023-05-10T02:01:22.813Z,12.97
2023-05-10T02:02:22.447Z,12.97
2023-05-10T02:03:22.683Z,12.93
2023-05-10T02:04:22.454Z,12.92
2023-05-10T02:05:22.584Z,12.90
2023-05-10T02:06:22.457Z,12.87
2023-05-10T02:07:22.483Z,12.86
2023-05-10T02:08:22.363Z,12.85
2023-05-10T02:09:22.434Z,12.79
2023-05-10T02:10:22.342Z,12.78
2023-05-10T02:11:22.423Z,12.75
2023-05-10T02:12:22.328Z,12.74
2023-05-10T02:13:22.518Z,12.71
2023-05-10T02:14:22.296Z,12.71
2023-05-10T02:15:22.445Z,12.70
2023-05-10T02:16:22.337Z,12.68
2023-05-10T02:17:22.467Z,12.67
2023-05-10T02:18:22.252Z,12.65
2023-05-10T02:19:22.303Z,12.65
2023-05-10T02:20:22.217Z,12.65
2023-05-10T02:21:22.369Z,12.67
2023-05-10T02:22:22.198Z,12.62
2023-05-10T02:23:22.193Z,12.62
2023-05-10T02:24:22.371Z,12.60
2023-05-10T02:25:22.153Z,12.64
2023-05-10T02:26:22.215Z,12.62
2023-05-10T02:27:22.132Z,12.64
2023-05-10T02:28:22.351Z,12.65
2023-05-10T02:29:22.223Z,12.62
2023-05-10T02:30:22.142Z,12.64
2023-05-10T02:31:22.301Z,12.59
2023-05-10T02:32:22.080Z,12.60
2023-05-10T02:33:22.152Z,12.60
2023-05-10T02:34:22.038Z,12.62
2023-05-10T02:35:22.014Z,12.62
2023-05-10T02:36:22.251Z,12.64
2023-05-10T02:37:21.983Z,12.62
2023-05-10T02:38:22.070Z,12.60
2023-05-10T02:39:21.991Z,12.62
2023-05-10T02:40:22.116Z,12.60
2023-05-10T02:41:21.942Z,12.62
2023-05-10T02:42:22.030Z,12.62
2023-05-10T02:43:21.934Z,12.60
2023-05-10T02:44:22.039Z,12.64
2023-05-10T02:45:21.885Z,12.62
2023-05-10T02:46:21.994Z,12.60
2023-05-10T02:47:21.901Z,12.62
2023-05-10T02:48:21.977Z,12.62
2023-05-10T02:49:21.819Z,12.60
2023-05-10T02:50:22.008Z,12.59
2023-05-10T02:51:21.800Z,12.53
2023-05-10T02:52:22.034Z,12.53
2023-05-10T02:53:21.814Z,12.52
2023-05-10T02:54:21.915Z,12.50
2023-05-10T02:55:21.824Z,12.49
2023-05-10T02:56:21.781Z,12.47
2023-05-10T02:57:21.923Z,12.46
2023-05-10T02:58:21.772Z,12.39
2023-05-10T02:59:21.827Z,12.39
2023-05-10T03:00:21.760Z,12.39
2023-05-10T03:01:21.725Z,12.39
2023-05-10T03:02:21.999Z,12.38
2023-05-10T03:03:21.690Z,12.34
2023-05-10T03:04:21.841Z,12.37
2023-05-10T03:05:21.779Z,12.38
2023-05-10T03:06:21.651Z,12.39
2023-05-10T03:07:21.777Z,12.39
2023-05-10T03:08:21.639Z,12.42
2023-05-10T03:09:21.805Z,12.41
2023-05-10T03:10:21.612Z,12.42
2023-05-10T03:11:21.541Z,12.46
2023-05-10T03:12:21.740Z,12.47
2023-05-10T03:13:21.582Z,12.47
2023-05-10T03:14:21.687Z,12.50
2023-05-10T03:15:21.500Z,12.50
2023-05-10T03:16:21.652Z,12.52
2023-05-10T03:17:21.468Z,12.54
2023-05-10T03:18:21.996Z,12.54
2023-05-10T03:19:21.443Z,12.57
2023-05-10T03:20:21.651Z,12.56
2023-05-10T03:21:21.424Z,12.59
2023-05-10T03:22:21.507Z,12.59
2023-05-10T03:23:21.389Z,12.62
2023-05-10T03:24:21.530Z,12.64
2023-05-10T03:25:21.397Z,12.64
2023-05-10T03:26:21.531Z,12.64
2023-05-10T03:27:21.335Z,12.68
2023-05-10T03:28:23.054Z,12.70
2023-05-10T03:29:21.322Z,12.70
2023-05-10T03:30:21.586Z,12.72
2023-05-10T03:31:21.342Z,12.74
2023-05-10T03:32:21.525Z,12.72
2023-05-10T03:33:21.282Z,12.74
2023-05-10T03:34:21.372Z,12.75
2023-05-10T03:35:21.270Z,12.75
2023-05-10T03:36:21.318Z,12.75
2023-05-10T03:37:21.235Z,12.74
2023-05-10T03:38:21.285Z,12.74
2023-05-10T03:39:21.207Z,12.77
2023-05-10T03:40:21.321Z,12.77
2023-05-10T03:41:21.273Z,12.78
2023-05-10T03:42:21.189Z,12.79
2023-05-10T03:43:21.359Z,12.78
2023-05-10T03:44:21.127Z,12.78
2023-05-10T03:45:21.255Z,12.78
2023-05-10T03:46:21.248Z,12.77
2023-05-10T03:47:21.100Z,12.75
2023-05-10T03:48:21.307Z,12.74
2023-05-10T03:49:21.074Z,12.70
2023-05-10T03:50:21.285Z,12.68
2023-05-10T03:51:21.059Z,12.68
2023-05-10T03:52:21.189Z,12.67
2023-05-10T03:53:21.063Z,12.68
2023-05-10T03:54:21.096Z,12.65
2023-05-10T03:55:21.013Z,12.65
2023-05-10T03:56:21.229Z,12.64
2023-05-10T03:57:21.014Z,12.65
2023-05-10T03:58:21.048Z,12.62
2023-05-10T03:59:20.957Z,12.62
2023-05-10T04:00:21.086Z,12.64
2023-05-10T04:01:20.933Z,12.60
2023-05-10T04:02:21.150Z,12.62
2023-05-10T04:03:21.156Z,12.64
2023-05-10T04:04:21.243Z,12.64
2023-05-10T04:05:20.895Z,12.62
2023-05-10T04:06:21.163Z,12.62
2023-05-10T04:07:20.899Z,12.59
2023-05-10T04:08:21.021Z,12.56
2023-05-10T04:09:20.867Z,12.53
2023-05-10T04:10:20.940Z,12.52
2023-05-10T04:11:20.821Z,12.54
2023-05-10T04:12:20.833Z,12.53
2023-05-10T04:13:20.915Z,12.56
2023-05-10T04:14:20.963Z,12.53
2023-05-10T04:15:20.779Z,12.56
2023-05-10T04:16:21.008Z,12.52
2023-05-10T04:17:21.020Z,12.53
2023-05-10T04:18:20.751Z,12.50
2023-05-10T04:19:21.402Z,12.54
2023-05-10T04:20:20.769Z,12.53
2023-05-10T04:21:20.693Z,12.56
2023-05-10T04:22:20.787Z,12.57
2023-05-10T04:23:20.660Z,12.59
2023-05-10T04:24:20.708Z,12.59
2023-05-10T04:25:20.682Z,12.60
2023-05-10T04:26:20.704Z,12.62
2023-05-10T04:27:20.610Z,12.62
2023-05-10T04:28:20.645Z,12.60
2023-05-10T04:29:20.593Z,12.60
2023-05-10T04:30:20.938Z,12.59
2023-05-10T04:31:20.724Z,12.60
2023-05-10T04:32:20.662Z,12.59
2023-05-10T04:33:20.552Z,12.60
2023-05-10T04:34:20.705Z,12.57
2023-05-10T04:35:20.500Z,12.59
2023-05-10T04:36:20.634Z,12.59
2023-05-10T04:37:20.471Z,12.59
2023-05-10T04:38:20.485Z,12.57
2023-05-10T04:39:20.456Z,12.59
2023-05-10T04:40:20.652Z,12.56
2023-05-10T04:41:20.436Z,12.59
2023-05-10T04:42:20.564Z,12.60
2023-05-10T04:43:20.397Z,12.60
2023-05-10T04:44:20.536Z,12.59
2023-05-10T04:45:20.762Z,12.57
2023-05-10T04:46:20.513Z,12.56
2023-05-10T04:47:20.371Z,12.54
2023-05-10T04:48:20.513Z,12.52
2023-05-10T04:49:20.332Z,12.49
2023-05-10T04:50:20.358Z,12.47
2023-05-10T04:51:20.299Z,12.49
2023-05-10T04:52:20.524Z,12.47
2023-05-10T04:53:20.533Z,12.46
2023-05-10T04:54:20.226Z,12.47
2023-05-10T04:55:20.411Z,12.47
2023-05-10T04:56:20.313Z,12.47
2023-05-10T04:57:20.332Z,12.45
2023-05-10T04:58:20.544Z,12.42
2023-05-10T04:59:20.184Z,12.45
2023-05-10T05:00:20.335Z,12.41
2023-05-10T05:01:20.282Z,12.41
2023-05-10T05:02:20.307Z,12.42
2023-05-10T05:03:20.227Z,12.42
2023-05-10T05:04:20.238Z,12.45
2023-05-10T05:05:20.121Z,12.42
2023-05-10T05:06:20.164Z,12.42
2023-05-10T05:07:20.080Z,12.39
2023-05-10T05:08:20.128Z,12.41
2023-05-10T05:09:20.049Z,12.41
2023-05-10T05:10:20.305Z,12.39
2023-05-10T05:11:20.031Z,12.39
2023-05-10T05:12:20.171Z,12.37
2023-05-10T05:13:20.752Z,12.41
2023-05-10T05:14:20.143Z,12.41
2023-05-10T05:15:19.988Z,12.41
2023-05-10T05:16:20.820Z,12.41
2023-05-10T05:17:19.971Z,12.41
2023-05-10T05:18:20.242Z,12.42
2023-05-10T05:19:19.954Z,12.41
2023-05-10T05:20:20.118Z,12.41
2023-05-10T05:21:19.954Z,12.42
2023-05-10T05:22:19.980Z,12.42
2023-05-10T05:23:19.894Z,12.39
2023-05-10T05:24:20.118Z,12.45
2023-05-10T05:25:19.893Z,12.45
2023-05-10T05:26:19.917Z,12.46
2023-05-10T05:27:19.866Z,12.47
2023-05-10T05:28:19.926Z,12.46
2023-05-10T05:29:20.002Z,12.47
2023-05-10T05:30:19.763Z,12.50
2023-05-10T05:31:20.033Z,12.52
2023-05-10T05:32:19.846Z,12.49
2023-05-10T05:33:19.965Z,12.49
2023-05-10T05:34:19.730Z,12.49
2023-05-10T05:35:19.842Z,12.53
2023-05-10T05:36:19.707Z,12.52
2023-05-10T05:37:19.800Z,12.52
2023-05-10T05:38:19.673Z,12.50
2023-05-10T05:39:19.813Z,12.52
2023-05-10T05:40:19.660Z,12.50
2023-05-10T05:41:19.706Z,12.49
2023-05-10T05:42:19.835Z,12.47
2023-05-10T05:43:19.827Z,12.47
2023-05-10T05:44:19.713Z,12.46
2023-05-10T05:45:20.086Z,12.45
2023-05-10T05:46:19.803Z,12.46
2023-05-10T05:47:19.937Z,12.45
2023-05-10T05:48:19.789Z,12.45
2023-05-10T05:49:19.721Z,12.41
2023-05-10T05:50:20.034Z,12.42
2023-05-10T05:51:19.582Z,12.45
2023-05-10T05:52:19.906Z,12.42
2023-05-10T05:53:19.746Z,12.41
2023-05-10T05:54:19.779Z,12.41
2023-05-10T05:55:19.784Z,12.39
2023-05-10T05:56:19.828Z,12.39
2023-05-10T05:57:19.661Z,12.41
2023-05-10T05:58:19.420Z,12.39
2023-05-10T05:59:19.544Z,12.41
2023-05-10T06:00:19.418Z,12.42
2023-05-10T06:01:19.585Z,12.42
2023-05-10T06:02:19.447Z,12.41
2023-05-10T06:03:19.572Z,12.39
2023-05-10T06:04:19.474Z,12.42
2023-05-10T06:05:19.494Z,12.42
2023-05-10T06:06:19.324Z,12.42
2023-05-10T06:07:19.712Z,12.39
2023-05-10T06:08:19.277Z,12.38
2023-05-10T06:09:19.426Z,12.39
2023-05-10T06:10:19.410Z,12.41
2023-05-10T06:11:19.277Z,12.46
2023-05-10T06:12:19.486Z,12.46
2023-05-10T06:13:19.258Z,12.47
2023-05-10T06:14:19.426Z,12.49
2023-05-10T06:15:19.446Z,12.49
2023-05-10T06:16:19.190Z,12.47
2023-05-10T06:17:19.293Z,12.50
2023-05-10T06:18:19.137Z,12.53
2023-05-10T06:19:19.717Z,12.52
2023-05-10T06:20:19.190Z,12.56
2023-05-10T06:21:19.339Z,12.54
2023-05-10T06:22:19.294Z,12.56
2023-05-10T06:23:19.578Z,12.56
2023-05-10T06:24:19.126Z,12.59
2023-05-10T06:25:20.058Z,12.54
2023-05-10T06:26:19.270Z,12.54
2023-05-10T06:27:19.329Z,12.57
2023-05-10T06:28:19.043Z,12.57
2023-05-10T06:29:19.255Z,12.60
2023-05-10T06:30:19.012Z,12.59
2023-05-10T06:31:19.218Z,12.62
2023-05-10T06:32:18.967Z,12.62
2023-05-10T06:33:19.133Z,12.64
2023-05-10T06:34:19.011Z,12.65
2023-05-10T06:35:19.313Z,12.68
2023-05-10T06:36:19.049Z,12.65
2023-05-10T06:37:19.140Z,12.68
2023-05-10T06:38:18.993Z,12.68
2023-05-10T06:39:19.146Z,12.71
2023-05-10T06:40:18.944Z,12.72
2023-05-10T06:41:19.192Z,12.74
2023-05-10T06:42:18.955Z,12.75
2023-05-10T06:43:19.178Z,12.78
2023-05-10T06:44:18.873Z,12.78
2023-05-10T06:45:19.234Z,12.78
2023-05-10T06:46:18.981Z,12.82
2023-05-10T06:47:25.290Z,12.82
2023-05-10T06:48:19.080Z,12.82
2023-05-10T06:49:18.806Z,12.85
2023-05-10T06:50:18.797Z,12.85
2023-05-10T06:51:18.851Z,12.83
2023-05-10T06:52:18.782Z,12.87
2023-05-10T06:53:18.791Z,12.89
2023-05-10T06:54:18.808Z,12.89
2023-05-10T06:55:18.992Z,12.90
2023-05-10T06:56:18.733Z,12.89
2023-05-10T06:57:30.430Z,12.89
2023-05-10T06:58:18.663Z,12.90
2023-05-10T06:59:18.872Z,12.95
2023-05-10T07:00:19.066Z,12.93
2023-05-10T07:01:19.165Z,12.93
2023-05-10T07:02:18.700Z,12.93
2023-05-10T07:03:18.903Z,12.92
2023-05-10T07:04:19.058Z,12.95
2023-05-10T07:05:19.414Z,12.93
2023-05-10T07:06:32.198Z,12.96
2023-05-10T07:07:19.150Z,12.97
2023-05-10T07:08:19.320Z,12.97
2023-05-10T07:09:18.508Z,12.97
2023-05-10T07:10:19.063Z,12.92
2023-05-10T07:11:18.795Z,12.92
2023-05-10T07:12:19.205Z,12.89
2023-05-10T07:13:18.569Z,12.89
2023-05-10T07:14:19.047Z,12.90
2023-05-10T07:15:19.249Z,12.92
2023-05-10T07:16:18.933Z,12.93
2023-05-10T07:17:18.985Z,12.92
2023-05-10T07:18:19.152Z,12.95
2023-05-10T07:19:18.762Z,12.96
2023-05-10T07:20:19.277Z,12.97
2023-05-10T07:21:18.836Z,12.96
2023-05-10T07:22:18.698Z,12.97
2023-05-10T07:23:18.723Z,13.00
2023-05-10T07:24:18.571Z,13.00
2023-05-10T07:25:18.446Z,13.00
2023-05-10T07:26:18.505Z,13.04
2023-05-10T07:27:18.489Z,13.01
2023-05-10T07:28:18.451Z,13.00
2023-05-10T07:29:18.409Z,13.03
2023-05-10T07:30:18.309Z,13.03
2023-05-10T07:31:18.441Z,13.03
2023-05-10T07:32:18.538Z,13.01
2023-05-10T07:33:18.775Z,13.03
2023-05-10T07:34:18.370Z,13.05
2023-05-10T07:35:18.527Z,13.03
2023-05-10T07:36:18.296Z,13.04
2023-05-10T07:37:18.412Z,13.05
2023-05-10T07:38:18.528Z,13.04
2023-05-10T07:39:26.659Z,13.03
2023-05-10T07:40:18.515Z,13.07
2023-05-10T07:41:18.497Z,13.08
2023-05-10T07:42:18.413Z,13.08
2023-05-10T07:43:18.386Z,13.08
2023-05-10T07:44:18.628Z,13.08
2023-05-10T07:45:18.904Z,13.10
2023-05-10T07:46:18.871Z,13.10
2023-05-10T07:47:18.866Z,13.12
2023-05-10T07:48:18.464Z,13.12
2023-05-10T07:49:18.585Z,13.11
2023-05-10T07:50:18.508Z,13.12
2023-05-10T07:51:18.624Z,13.12
2023-05-10T07:52:20.634Z,13.12
2023-05-10T07:53:18.752Z,13.14
2023-05-10T07:54:19.182Z,13.15
2023-05-10T07:55:18.385Z,13.17
2023-05-10T07:56:18.943Z,13.17
2023-05-10T07:57:19.091Z,13.17
2023-05-10T07:58:18.840Z,13.22
2023-05-10T07:59:18.572Z,13.23
2023-05-10T08:00:18.716Z,13.22
2023-05-10T08:01:19.191Z,13.23
2023-05-10T08:02:18.895Z,13.25
2023-05-10T08:03:18.522Z,13.26
2023-05-10T08:04:18.285Z,13.29
2023-05-10T08:05:19.762Z,13.30
2023-05-10T08:06:18.670Z,13.33
2023-05-10T08:07:18.324Z,13.39
2023-05-10T08:08:18.666Z,13.38
2023-05-10T08:09:18.478Z,13.41
2023-05-10T08:10:18.565Z,13.44
2023-05-10T08:11:18.296Z,13.45
2023-05-10T08:12:18.313Z,13.51
2023-05-10T08:13:18.463Z,13.51
2023-05-10T08:14:18.251Z,13.54
2023-05-10T08:15:18.690Z,13.54
2023-05-10T08:16:18.791Z,13.57
2023-05-10T08:17:20.055Z,13.60
2023-05-10T08:18:18.598Z,13.64
2023-05-10T08:19:18.028Z,13.64
2023-05-10T08:20:18.717Z,13.66
2023-05-10T08:21:18.259Z,13.70
2023-05-10T08:22:18.869Z,13.73
2023-05-10T08:23:18.072Z,13.73
2023-05-10T08:24:18.099Z,13.79
2023-05-10T08:25:17.803Z,13.79
2023-05-10T08:26:17.977Z,13.82
2023-05-10T08:27:17.893Z,13.85
2023-05-10T08:28:17.999Z,13.85
2023-05-10T08:29:17.692Z,13.88
2023-05-10T08:30:17.671Z,13.91
2023-05-10T08:31:17.550Z,13.95
2023-05-10T08:32:17.857Z,13.92
2023-05-10T08:33:17.895Z,13.97
2023-05-10T08:34:17.697Z,14.00
2023-05-10T08:35:18.277Z,14.02
2023-05-10T08:36:17.700Z,14.07
2023-05-10T08:37:17.607Z,14.09
2023-05-10T08:38:18.065Z,14.12
2023-05-10T08:39:29.417Z,14.15
2023-05-10T08:40:17.667Z,14.18
2023-05-10T08:41:17.477Z,14.21
2023-05-10T08:42:17.600Z,14.24
2023-05-10T08:43:18.439Z,14.29
2023-05-10T08:44:17.443Z,14.32
2023-05-10T08:45:18.014Z,14.33
2023-05-10T08:46:17.576Z,14.35
2023-05-10T08:47:17.432Z,14.33
2023-05-10T08:48:17.313Z,14.33
2023-05-10T08:49:17.376Z,14.28
2023-05-10T08:50:17.270Z,14.29
2023-05-10T08:51:17.367Z,14.25
2023-05-10T08:52:17.202Z,14.29
2023-05-10T08:53:17.426Z,14.29
2023-05-10T08:54:17.378Z,14.32
2023-05-10T08:55:17.716Z,14.29
2023-05-10T08:56:17.155Z,14.32
2023-05-10T08:57:17.390Z,14.29
2023-05-10T08:58:17.140Z,14.35
2023-05-10T08:59:17.260Z,14.33
2023-05-10T09:00:17.763Z,14.35
2023-05-10T09:01:18.718Z,14.37
2023-05-10T09:02:18.792Z,14.40
2023-05-10T09:03:17.619Z,14.43
2023-05-10T09:04:17.974Z,14.43
2023-05-10T09:05:17.690Z,14.45
2023-05-10T09:06:17.082Z,14.45
2023-05-10T09:07:17.167Z,14.43
2023-05-10T09:08:17.174Z,14.45
2023-05-10T09:09:17.275Z,14.46
2023-05-10T09:10:16.992Z,14.50
2023-05-10T09:11:17.234Z,14.54
2023-05-10T09:12:16.947Z,14.51
2023-05-10T09:13:17.107Z,14.54
2023-05-10T09:14:16.925Z,14.52
2023-05-10T09:15:17.279Z,14.54
2023-05-10T09:16:21.626Z,14.54
2023-05-10T09:17:17.001Z,14.54
2023-05-10T09:18:17.131Z,14.57
2023-05-10T09:19:16.930Z,14.57
2023-05-10T09:20:16.925Z,14.52
2023-05-10T09:21:17.077Z,14.57
2023-05-10T09:22:17.096Z,14.57
2023-05-10T09:23:16.977Z,14.58
2023-05-10T09:24:16.908Z,14.62
2023-05-10T09:25:17.093Z,14.61
2023-05-10T09:26:17.045Z,14.65
2023-05-10T09:27:16.779Z,14.70
2023-05-10T09:28:16.906Z,14.68
2023-05-10T09:29:17.865Z,14.69
2023-05-10T09:30:16.824Z,14.70
2023-05-10T09:31:16.886Z,14.75
2023-05-10T09:32:16.688Z,14.73
2023-05-10T09:33:16.907Z,14.72
2023-05-10T09:34:16.740Z,14.72
2023-05-10T09:35:17.056Z,14.73
2023-05-10T09:36:16.700Z,14.75
2023-05-10T09:37:16.794Z,14.83
2023-05-10T09:38:16.710Z,14.84
2023-05-10T09:39:16.935Z,14.89
2023-05-10T09:40:16.638Z,14.95
2023-05-10T09:41:16.695Z,14.98
2023-05-10T09:42:16.560Z,15.02
2023-05-10T09:43:16.921Z,15.03
2023-05-10T09:44:16.647Z,15.07
2023-05-10T09:45:16.939Z,15.10
2023-05-10T09:46:16.615Z,15.07
2023-05-10T09:47:16.616Z,15.03
2023-05-10T09:48:16.512Z,14.99
2023-05-10T09:49:16.633Z,14.96
2023-05-10T09:50:16.473Z,14.95
2023-05-10T09:51:16.616Z,14.95
2023-05-10T09:52:16.455Z,14.94
2023-05-10T09:53:17.052Z,14.89
2023-05-10T09:54:16.814Z,14.88
2023-05-10T09:55:16.843Z,14.83
2023-05-10T09:56:16.528Z,14.83
2023-05-10T09:57:17.086Z,14.78
2023-05-10T09:58:16.472Z,14.72
2023-05-10T09:59:16.881Z,14.68
2023-05-10T10:00:16.732Z,14.55
2023-05-10T10:01:16.493Z,14.51
2023-05-10T10:02:16.448Z,14.43
2023-05-10T10:03:16.365Z,14.39
2023-05-10T10:04:16.563Z,14.29
2023-05-10T10:05:16.561Z,14.22
2023-05-10T10:06:28.979Z,14.18
2023-05-10T10:07:16.250Z,14.14
2023-05-10T10:08:16.554Z,14.04
2023-05-10T10:09:16.230Z,14.00
2023-05-10T10:10:16.501Z,13.99
2023-05-10T10:11:16.201Z,13.89
2023-05-10T10:12:16.557Z,13.84
2023-05-10T10:13:16.238Z,13.82
2023-05-10T10:14:16.323Z,13.78
2023-05-10T10:15:16.922Z,13.77
2023-05-10T10:16:16.163Z,13.70
2023-05-10T10:17:16.369Z,13.67
2023-05-10T10:18:16.190Z,13.67
2023-05-10T10:19:16.315Z,13.66
2023-05-10T10:20:16.337Z,13.66
2023-05-10T10:21:16.254Z,13.67
2023-05-10T10:22:16.127Z,13.64
2023-05-10T10:23:17.672Z,13.64
2023-05-10T10:24:16.040Z,13.62
2023-05-10T10:25:16.960Z,13.62
2023-05-10T10:26:16.024Z,13.60
2023-05-10T10:27:16.145Z,13.62
2023-05-10T10:28:15.978Z,13.63
2023-05-10T10:29:16.096Z,13.66
2023-05-10T10:30:16.053Z,13.67
2023-05-10T10:31:16.151Z,13.70
2023-05-10T10:32:15.964Z,13.70
2023-05-10T10:33:27.213Z,13.70
2023-05-10T10:34:15.932Z,13.70
2023-05-10T10:35:16.169Z,13.77
2023-05-10T10:36:15.897Z,13.79
2023-05-10T10:37:16.073Z,13.82
2023-05-10T10:38:15.876Z,13.85
2023-05-10T10:39:16.164Z,13.88
2023-05-10T10:40:15.893Z,13.92
2023-05-10T10:41:16.078Z,13.97
2023-05-10T10:42:15.808Z,14.00
2023-05-10T10:43:15.890Z,14.07
2023-05-10T10:44:15.815Z,14.10
2023-05-10T10:45:16.147Z,14.12
2023-05-10T10:46:15.835Z,14.17
2023-05-10T10:47:15.924Z,14.24
2023-05-10T10:48:15.784Z,14.24
2023-05-10T10:49:15.960Z,14.32
2023-05-10T10:50:15.810Z,14.35
2023-05-10T10:51:15.850Z,14.40
2023-05-10T10:52:15.659Z,14.45
2023-05-10T10:53:15.899Z,14.46
2023-05-10T10:54:15.695Z,14.47
2023-05-10T10:55:15.993Z,14.55
2023-05-10T10:56:15.903Z,14.58
2023-05-10T10:57:15.584Z,14.65
2023-05-10T10:58:15.855Z,14.70
2023-05-10T10:59:15.567Z,14.81
2023-05-10T11:00:15.807Z,14.84
2023-05-10T11:01:15.688Z,14.94
2023-05-10T11:02:15.734Z,14.99
2023-05-10T11:03:15.710Z,15.07
2023-05-10T11:04:15.677Z,15.16
2023-05-10T11:05:15.781Z,15.21
2023-05-10T11:06:15.786Z,15.27
2023-05-10T11:07:15.628Z,15.32
2023-05-10T11:08:15.683Z,15.35
2023-05-10T11:09:15.573Z,15.32
2023-05-10T11:10:15.767Z,15.28
2023-05-10T11:11:15.453Z,15.23
2023-05-10T11:12:16.785Z,15.17
2023-05-10T11:13:15.402Z,15.10
2023-05-10T11:14:15.696Z,15.06
2023-05-10T11:15:15.795Z,14.98
2023-05-10T11:16:15.832Z,14.91
2023-05-10T11:17:15.411Z,14.80
2023-05-10T11:18:15.611Z,14.69
2023-05-10T11:19:15.392Z,14.57
2023-05-10T11:20:16.014Z,14.52
2023-05-10T11:21:15.313Z,14.50
2023-05-10T11:22:15.574Z,14.43
2023-05-10T11:23:15.294Z,14.42
2023-05-10T11:24:15.503Z,14.37
2023-05-10T11:25:15.874Z,14.35
2023-05-10T11:26:15.499Z,14.32
2023-05-10T11:27:15.250Z,14.27
2023-05-10T11:28:15.400Z,14.24
2023-05-10T11:29:15.189Z,14.22
2023-05-10T11:30:15.937Z,14.15
2023-05-10T11:31:15.343Z,14.10
2023-05-10T11:32:15.789Z,14.03
2023-05-10T11:33:15.232Z,14.00
2023-05-10T11:34:15.454Z,13.96
2023-05-10T11:35:15.123Z,13.92
2023-05-10T11:36:15.368Z,13.91
2023-05-10T11:37:15.760Z,13.85
2023-05-10T11:38:15.138Z,13.79
2023-05-10T11:39:15.670Z,13.73
2023-05-10T11:40:15.340Z,13.70
2023-05-10T11:41:15.201Z,13.69
2023-05-10T11:42:15.270Z,13.66
2023-05-10T11:43:15.101Z,13.66
2023-05-10T11:44:15.235Z,13.66
2023-05-10T11:45:15.026Z,13.66
2023-05-10T11:46:15.311Z,13.63
2023-05-10T11:47:14.963Z,13.64
2023-05-10T11:48:15.514Z,13.63
2023-05-10T11:49:14.997Z,13.62
2023-05-10T11:50:15.661Z,13.62
2023-05-10T11:51:15.011Z,13.60
2023-05-10T11:52:15.058Z,13.60
2023-05-10T11:53:14.930Z,13.62
2023-05-10T11:54:15.154Z,13.67
2023-05-10T11:55:14.931Z,13.71
2023-05-10T11:56:15.297Z,13.73
2023-05-10T11:57:14.858Z,13.73
2023-05-10T11:58:15.177Z,13.73
2023-05-10T11:59:14.851Z,13.71
2023-05-10T12:00:15.371Z,13.78
2023-05-10T12:01:14.807Z,13.78
2023-05-10T12:02:15.142Z,13.82
2023-05-10T12:03:15.082Z,13.87
2023-05-10T12:04:14.986Z,13.88
2023-05-10T12:05:15.105Z,13.88
2023-05-10T12:06:14.749Z,13.89
2023-05-10T12:07:15.038Z,13.95
2023-05-10T12:08:14.758Z,13.96
2023-05-10T12:09:15.161Z,13.96
2023-05-10T12:10:14.754Z,13.97
2023-05-10T12:11:14.894Z,13.97
2023-05-10T12:12:14.956Z,13.99
2023-05-10T12:13:14.802Z,13.99
2023-05-10T12:14:14.752Z,14.03
2023-05-10T12:15:14.875Z,14.06
2023-05-10T12:16:14.639Z,14.07
2023-05-10T12:17:14.796Z,14.06
2023-05-10T12:18:14.789Z,14.07
2023-05-10T12:19:14.569Z,14.10
2023-05-10T12:20:15.032Z,14.14
2023-05-10T12:21:14.551Z,14.07
2023-05-10T12:22:14.822Z,14.07
2023-05-10T12:23:14.786Z,14.09
2023-05-10T12:24:14.534Z,14.07
2023-05-10T12:25:15.702Z,14.10
2023-05-10T12:26:15.417Z,14.10
2023-05-10T12:27:15.946Z,14.10
2023-05-10T12:28:15.587Z,14.14
2023-05-10T12:29:14.876Z,14.15
2023-05-10T12:30:14.890Z,14.20
2023-05-10T12:31:15.152Z,14.22
2023-05-10T12:32:15.027Z,14.25
2023-05-10T12:33:15.468Z,14.27
2023-05-10T12:34:14.929Z,14.28
2023-05-10T12:35:14.912Z,14.29
2023-05-10T12:36:15.060Z,14.28
2023-05-10T12:37:15.176Z,14.25
2023-05-10T12:38:14.950Z,14.21
2023-05-10T12:39:14.508Z,14.22
2023-05-10T12:40:14.742Z,14.20
2023-05-10T12:41:14.727Z,14.18
2023-05-10T12:42:14.393Z,14.17
2023-05-10T12:43:14.592Z,14.12
2023-05-10T12:44:14.274Z,14.15
2023-05-10T12:45:14.449Z,14.10
2023-05-10T12:46:14.315Z,14.07
2023-05-10T12:47:14.433Z,14.04
2023-05-10T12:48:14.275Z,14.02
2023-05-10T12:49:14.578Z,13.99
2023-05-10T12:50:14.460Z,13.95
2023-05-10T12:51:14.565Z,13.95
2023-05-10T12:52:14.316Z,13.95